Portada
METAR-TAF:

METAR-TAF

Aeroports :

Nadi, Fiji

latitud: 17-45S, longitud: 177-27E, altitud: 13 m

Observació

L'informe es va fer fa 12 minuts, a les 12:00 UTC
Vent 2 kt amb direcció variable
Temperatura 24°C
Humitat 94%
Pressió 1011 hPa
Visibilitat 10 km o més
Escasses núvols a una alçada de 2600 ft
Cel ennuvolat a una alçada de 29000 ft

METAR: NFFN 091200Z VRB02KT 9999 FEW026 BKN290 24/23 Q1011 NOSIG

Hora: 00:12 (12:12 UTC)

Pronòstic

L'informe es va fer fa 1 hora i 11 minuts, a les 11:01 UTC
Pronòstic vàlid del 09 a les 12 UTC al 10 a les 12 UTC
Vent 7 kt del Sud/Sud-Est
Visibilitat 10 km o més
Núvols disperses a una alçada de 2600 ft

TAF: NFFN 091101Z 0912/1012 15007KT 9999 SCT026

Observacions i pronòstics meteorològics de més de 4000 aeroports (METAR i TAF).

Les estacions disponibles són els punts grocs i vermells al mapa.

Posi el ratolí al punt desitjat per veure el nom de l'estació.

Feu clic per veure les observacions i els pronòstics meteorològics.

Per canviar el mapa: feu clic els botons verds amb una creu de color negre per apropar; al botó verd amb un guió per allunyar la imatge; o en les fletxes verdes per a mapes adjacents.


METAR-TAF: